地図

経路データ

SID SEASON NUMBER BASIN SUBBASIN NAME ISO_TIME NATURE LAT LON WMO_WIND WMO_PRES WMO_AGENCY TRACK_TYPE DIST2LAND LANDFALL IFLAG USA_AGENCY USA_ATCF_ID USA_LAT USA_LON USA_RECORD USA_STATUS USA_WIND USA_PRES USA_SSHS USA_R34_NE USA_R34_SE USA_R34_SW USA_R34_NW USA_R50_NE USA_R50_SE USA_R50_SW USA_R50_NW USA_R64_NE USA_R64_SE USA_R64_SW USA_R64_NW USA_POCI USA_ROCI USA_RMW USA_EYE TOKYO_LAT TOKYO_LON TOKYO_GRADE TOKYO_WIND TOKYO_PRES TOKYO_R50_DIR TOKYO_R50_LONG TOKYO_R50_SHORT TOKYO_R30_DIR TOKYO_R30_LONG TOKYO_R30_SHORT TOKYO_LAND CMA_LAT CMA_LON CMA_CAT CMA_WIND CMA_PRES HKO_LAT HKO_LON HKO_CAT HKO_WIND HKO_PRES NEWDELHI_LAT NEWDELHI_LON NEWDELHI_GRADE NEWDELHI_WIND NEWDELHI_PRES NEWDELHI_CI NEWDELHI_DP NEWDELHI_POCI REUNION_LAT REUNION_LON REUNION_TYPE REUNION_WIND REUNION_PRES REUNION_TNUM REUNION_CI REUNION_RMW REUNION_R34_NE REUNION_R34_SE REUNION_R34_SW REUNION_R34_NW REUNION_R50_NE REUNION_R50_SE REUNION_R50_SW REUNION_R50_NW REUNION_R64_NE REUNION_R64_SE REUNION_R64_SW REUNION_R64_NW BOM_LAT BOM_LON BOM_TYPE BOM_WIND BOM_PRES BOM_TNUM BOM_CI BOM_RMW BOM_R34_NE BOM_R34_SE BOM_R34_SW BOM_R34_NW BOM_R50_NE BOM_R50_SE BOM_R50_SW BOM_R50_NW BOM_R64_NE BOM_R64_SE BOM_R64_SW BOM_R64_NW BOM_ROCI BOM_POCI BOM_EYE BOM_POS_METHOD BOM_PRES_METHOD NADI_LAT NADI_LON NADI_CAT NADI_WIND NADI_PRES WELLINGTON_LAT WELLINGTON_LON WELLINGTON_WIND WELLINGTON_PRES DS824_LAT DS824_LON DS824_STAGE DS824_WIND DS824_PRES TD9636_LAT TD9636_LON TD9636_STAGE TD9636_WIND TD9636_PRES TD9635_LAT TD9635_LON TD9635_WIND TD9635_PRES TD9635_ROCI NEUMANN_LAT NEUMANN_LON NEUMANN_CLASS NEUMANN_WIND NEUMANN_PRES MLC_LAT MLC_LON MLC_CLASS MLC_WIND MLC_PRES USA_GUST BOM_GUST BOM_GUST_PER REUNION_GUST REUNION_GUST_PER USA_SEAHGT USA_SEARAD_NE USA_SEARAD_SE USA_SEARAD_SW USA_SEARAD_NW STORM_SPEED STORM_DIR
1973330S10116 1974 128 SI WA BERYL 1973-11-26 00:00:00 TS -9.90000 116.200 main 103 103 O________OO___ jtwc_sh SH071974 -9.90000 116.200 -1 -9.90000 116.200 TC -9.90000 116.200 4 3 134
1973330S10116 1974 128 SI WA BERYL 1973-11-26 01:00:00 TS -9.92770 116.242 25 1007 bom main 103 101 P_____O__PP___ SH071974 -9.89568 116.217 -1 -10.1000 116.400 20 25 1007 1.50000 -9.89568 116.217 TC -9.90558 116.214 4 2 115
1973330S10116 1974 128 SI WA BERYL 1973-11-26 03:00:00 TS -9.93335 116.274 main 101 101 P_____P__PP___ SH071974 -9.89000 116.250 -1 -10.0877 116.390 20 25 1005 -9.89000 116.250 TC -9.91719 116.244 4 1 110
1973330S10116 1974 128 SI WA BERYL 1973-11-26 04:00:00 TS -9.94099 116.291 25 1005 bom main 101 101 P_____O__PP___ SH071974 -9.89013 116.267 -1 -10.1000 116.400 20 25 1005 1.50000 -9.89013 116.267 TC -9.92346 116.259 4 2 124
1973330S10116 1974 128 SI WA BERYL 1973-11-26 06:00:00 TS -9.99592 116.361 main 112 112 O_____P__OP_O_ jtwc_sh SH071974 -9.90000 116.300 -1 -10.1691 116.461 20 25 1002 -9.90000 116.300 TC -9.93750 116.290 4 -10.1000 116.600 TC 15 1006 3 128
1973330S10116 1974 128 SI WA BERYL 1973-11-26 07:00:00 TS -10.0247 116.403 25 1002 bom main 112 112 P_____O__PP_P_ SH071974 -9.91096 116.317 -1 -10.2000 116.500 20 25 1002 1.50000 -9.91096 116.317 TC -9.94550 116.306 4 -10.1167 116.611 TC 15 1005 2 123
1973330S10116 1974 128 SI WA BERYL 1973-11-26 09:00:00 TS -10.0563 116.462 main 123 123 P_____P__PP_P_ SH071974 -9.94250 116.350 -1 -10.2054 116.567 20 25 1002 -9.94250 116.350 TC -9.96406 116.341 4 -10.1500 116.638 TC 17 1005 2 117
1973330S10116 1974 128 SI WA BERYL 1973-11-26 10:00:00 TS -10.0757 116.498 25 1003 bom main 123 123 P_____O__PP_P_ SH071974 -9.96123 116.367 -1 -10.2000 116.600 20 25 1003 1.50000 -9.96123 116.367 TC -9.97484 116.360 4 -10.1667 116.654 TC 18 1004 2 119
1973330S10116 1974 128 SI WA BERYL 1973-11-26 12:00:00 TS -10.0987 116.546 main 123 120 O_____P__OO_O_ jtwc_sh SH071974 -10.0000 116.400 -1 -10.1921 116.675 20 25 1003 -10.0000 116.400 TC -10.0000 116.400 4 -10.2000 116.700 TC 20 1004 2 118
1973330S10116 1974 128 SI WA BERYL 1973-11-26 13:00:00 TS -10.1126 116.567 25 1004 bom main 120 120 P_____O__PP_P_ SH071974 -10.0167 116.414 -1 -10.2000 116.700 20 25 1004 1.50000 -10.0167 116.414 TC -10.0145 116.422 4 -10.2167 116.730 TC 20 1004 2 132
1973330S10116 1974 128 SI WA BERYL 1973-11-26 15:00:00 TS -10.1514 116.603 main 130 130 P_____P__PP_P_ SH071974 -10.0500 116.443 -1 -10.2691 116.698 20 25 1004 -10.0500 116.443 TC -10.0469 116.468 4 -10.2500 116.800 TC 20 1004 2 137
1973330S10116 1974 128 SI WA BERYL 1973-11-26 16:00:00 TS -10.1709 116.621 25 1005 bom main 130 127 P_____O__PP_P_ SH071974 -10.0667 116.459 -1 -10.3000 116.700 20 25 1005 1.50000 -10.0667 116.459 TC -10.0642 116.492 4 -10.2667 116.836 TC 20 1004 2 124
1973330S10116 1974 128 SI WA BERYL 1973-11-26 18:00:00 TS -10.2009 116.670 main 127 127 O_____P__OP_O_ jtwc_sh SH071974 -10.1000 116.500 -1 -10.3054 116.777 20 25 1004 -10.1000 116.500 TC -10.1000 116.542 4 -10.3000 116.900 TC 20 1004 2 124
1973330S10116 1974 128 SI WA BERYL 1973-11-26 19:00:00 TS -10.2150 116.692 25 1004 bom main 127 127 P_____O__PP_P_ SH071974 -10.1193 116.530 -1 -10.3000 116.800 20 25 1004 1.50000 -10.1193 116.530 TC -10.1180 116.568 4 -10.3167 116.922 TC 20 1004 1 139
1973330S10116 1974 128 SI WA BERYL 1973-11-26 21:00:00 TS -10.2434 116.715 main 127 127 P_____P__PP_P_ SH071974 -10.1575 116.600 -1 -10.2921 116.721 20 25 1004 -10.1575 116.600 TC -10.1531 116.621 4 -10.3500 116.958 TC 20 1004 1 141
1973330S10116 1974 128 SI WA BERYL 1973-11-26 22:00:00 TS -10.2587 116.730 25 1004 bom main 138 136 P_____O__PP_P_ SH071974 -10.1746 116.636 -1 -10.3000 116.700 20 25 1004 1.50000 -10.1746 116.636 TC -10.1698 116.647 4 -10.3667 116.972 TC 20 1004 2 126
1973330S10116 1974 128 SI WA BERYL 1973-11-27 00:00:00 TS -10.2949 116.787 main 136 136 O_____P__OO_O_ jtwc_sh SH071974 -10.2000 116.700 -1 -10.3691 116.825 20 25 1004 -10.2000 116.700 TC -10.2000 116.700 4 -10.4000 117.000 TC 20 1004 2 118
1973330S10116 1974 128 SI WA BERYL 1973-11-27 01:00:00 TS -10.3085 116.818 25 1004 bom main 136 134 P_____O__PP_P_ SH071974 -10.2031 116.720 -1 -10.4000 116.900 20 25 1004 2.00000 -10.2031 116.720 TC -10.2117 116.726 4 -10.4167 117.017 TC 20 1003 2 110
1973330S10116 1974 128 SI WA BERYL 1973-11-27 03:00:00 TS -10.3216 116.867 main 134 134 P_____P__PP_P_ SH071974 -10.2000 116.750 -1 -10.3975 116.980 20 25 1002 -10.2000 116.750 TC -10.2322 116.779 4 -10.4500 117.050 TC 22 1002 1 107
1973330S10116 1974 128 SI WA BERYL 1973-11-27 04:00:00 TS -10.3283 116.888 25 1002 bom main 134 134 P_____O__PP_P_ SH071974 -10.1975 116.764 -1 -10.4000 117.000 20 25 1002 2.00000 -10.1975 116.764 TC -10.2412 116.805 4 -10.4667 117.067 TC 23 1002 1 119
1973330S10116 1974 128 SI WA BERYL 1973-11-27 06:00:00 TS -10.3544 116.926 main 146 146 O_____P__OP_O_ jtwc_sh SH071974 -10.2000 116.800 -1 -10.4691 116.998 20 25 999 -10.2000 116.800 TC -10.2575 116.858 4 -10.5000 117.100 TC 25 1001 1 128
1973330S10116 1974 128 SI WA BERYL 1973-11-27 07:00:00 TS -10.3700 116.948 25 999 bom main 146 145 P_____O__PP_P_ SH071974 -10.2110 116.830 -1 -10.5000 117.000 20 25 999 2.00000 -10.2110 116.830 TC -10.2650 116.883 4 -10.5167 117.119 TC 26 1000 2 116
1973330S10116 1974 128 SI WA BERYL 1973-11-27 09:00:00 TS -10.3936 117.003 main 145 145 P_____P__PP_P_ SH071974 -10.2425 116.900 -1 -10.4975 117.069 20 28 998 -10.2425 116.900 TC -10.2791 116.932 4 -10.5500 117.158 TC 30 999 2 115
1973330S10116 1974 128 SI WA BERYL 1973-11-27 10:00:00 TS -10.4070 117.029 30 998 bom main 145 145 P_____O__PP_P_ SH071974 -10.2612 116.936 -1 -10.5000 117.100 20 30 998 2.50000 -10.2612 116.936 TC -10.2860 116.956 4 -10.5667 117.175 TC 31 999 2 130
1973330S10116 1974 128 SI WA BERYL 1973-11-27 12:00:00 TS -10.4449 117.066 main 145 145 O_____P__OO_O_ jtwc_sh SH071974 -10.3000 117.000 -1 -10.5691 117.098 20 30 997 -10.3000 117.000 TC -10.3000 117.000 4 -10.6000 117.200 TC 35 998 2 136
1973330S10116 1974 128 SI WA BERYL 1973-11-27 13:00:00 TS -10.4638 117.081 30 997 bom main 156 156 P_____O__PP_P_ SH071974 -10.3193 117.022 -1 -10.6000 117.100 20 30 997 2.50000 -10.3193 117.022 TC -10.3108 117.018 4 -10.6167 117.203 TC 35 997 1 145
1973330S10116 1974 128 SI WA BERYL 1973-11-27 15:00:00 TS -10.4909 117.115 main 156 156 P_____P__PP_P_ SH071974 -10.3575 117.058 -1 -10.5975 117.169 20 30 996 -10.3575 117.058 TC -10.3331 117.049 4 -10.6500 117.200 TC 35 997 1 137
1973330S10116 1974 128 SI WA BERYL 1973-11-27 16:00:00 TS -10.5044 117.130 30 996 bom main 156 156 P_____O__PP_P_ SH071974 -10.3746 117.072 -1 -10.6000 117.200 20 30 996 2.50000 -10.3746 117.072 TC -10.3442 117.064 4 -10.6667 117.198 TC 35 996 1 149
1973330S10116 1974 128 SI WA BERYL 1973-11-27 18:00:00 TS -10.5390 117.148 main 156 156 O_____P__OP_O_ jtwc_sh SH071974 -10.4000 117.100 -1 -10.6691 117.198 20 33 994 -10.4000 117.100 TC -10.3650 117.092 4 -10.7000 117.200 TC 35 996 1 151
1973330S10116 1974 128 SI WA BERYL 1973-11-27 19:00:00 TS -10.5536 117.157 35 994 bom main 168 168 P_____O__PP_P_ SH071974 -10.4057 117.114 -1 -10.7000 117.200 20 35 994 3.00000 -10.4057 117.114 TC -10.3742 117.107 4 -10.7193 117.208 TC 35 995 1 121
1973330S10116 1974 128 SI WA BERYL 1973-11-27 21:00:00 TS -10.5682 117.187 main 168 168 P_____P__PP_P_ SH071974 -10.4075 117.143 -1 -10.6975 117.277 20 35 994 -10.4075 117.143 TC -10.3894 117.140 4 -10.7575 117.235 TC 37 995 1 122
1973330S10116 1974 128 SI WA BERYL 1973-11-27 22:00:00 TS -10.5745 117.202 35 994 bom main 168 168 P_____O__PP_P_ SH071974 -10.4054 117.159 -1 -10.7000 117.300 30 35 994 3.00000 -10.4054 117.159 TC -10.3947 117.158 4 -10.7746 117.253 TC 38 994 1 132
1973330S10116 1974 128 SI WA BERYL 1973-11-28 00:00:00 TS -10.5949 117.220 main 168 168 O_____P__OO_O_ jtwc_sh SH071974 -10.4000 117.200 -1 -10.7691 117.221 30 35 994 -10.4000 117.200 TC -10.4000 117.200 4 -10.8000 117.300 TC 40 994 1 123
1973330S10116 1974 128 SI WA BERYL 1973-11-28 01:00:00 TS -10.6052 117.240 35 994 bom main 168 168 P_____O__PP_P_ SH071974 -10.4026 117.228 -1 -10.8000 117.200 30 35 994 3.00000 -10.4026 117.228 TC -10.3984 117.224 4 -10.8057 117.328 TC 40 993 2 100
1973330S10116 1974 128 SI WA BERYL 1973-11-28 03:00:00 TS -10.6124 117.319 main 169 169 P_____P__PP_P_ SH071974 -10.4075 117.292 -1 -10.7975 117.325 30 38 992 -10.4075 117.292 TC -10.3894 117.278 4 -10.8075 117.393 TC 42 993 2 94
1973330S10116 1974 128 SI WA BERYL 1973-11-28 04:00:00 TS -10.6144 117.364 40 992 bom main 171 171 P_____O__PP_P_ SH071974 -10.4079 117.328 -1 -10.8000 117.400 30 40 992 3.00000 -10.4079 117.328 TC -10.3825 117.307 4 -10.8054 117.428 TC 43 992 2 95
1973330S10116 1974 128 SI WA BERYL 1973-11-28 06:00:00 TS -10.6224 117.440 main 171 171 O_____P__OP_O_ jtwc_sh SH071974 -10.4000 117.400 -1 -10.8691 117.472 30 40 989 -10.4000 117.400 TC -10.3650 117.370 4 -10.8000 117.500 TC 45 992 2 93
1973330S10116 1974 128 SI WA BERYL 1973-11-28 07:00:00 TS -10.6200 117.473 40 989 bom main 173 173 P_____O__PP_P_ SH071974 -10.3864 117.431 -1 -10.9000 117.500 30 40 989 3.00000 -10.3864 117.431 TC -10.3549 117.404 4 -10.8000 117.533 TC 45 991 2 77
1973330S10116 1974 128 SI WA BERYL 1973-11-28 09:00:00 TS -10.6007 117.539 main 173 173 P_____P__PP_P_ SH071974 -10.3500 117.493 -1 -10.9133 117.567 30 40 989 -10.3500 117.493 TC -10.3331 117.478 4 -10.8000 117.600 TC 45 991 2 71
1973330S10116 1974 128 SI WA BERYL 1973-11-28 10:00:00 TS -10.5866 117.573 40 989 bom main 176 176 P_____O__PP_P_ SH071974 -10.3309 117.525 -1 -10.9000 117.600 30 40 989 3.00000 -10.3309 117.525 TC -10.3219 117.517 4 -10.8000 117.633 TC 45 990 2 66
1973330S10116 1974 128 SI WA BERYL 1973-11-28 12:00:00 TS -10.5551 117.644 main 176 170 O_____P__OO_O_ jtwc_sh SH071974 -10.3000 117.600 -1 -10.8309 117.667 30 43 989 -10.3000 117.600 TC -10.3000 117.600 4 -10.8000 117.700 TC 45 990 2 71
1973330S10116 1974 128 SI WA BERYL 1973-11-28 13:00:00 TS -10.5471 117.684 45 990 bom main 170 164 P_____O__PP_P_ SH071974 -10.2969 117.644 -1 -10.8000 117.700 30 45 990 3.00000 -10.2969 117.644 TC -10.2892 117.648 4 -10.8026 117.733 TC 45 989 2 85
1973330S10116 1974 128 SI WA BERYL 1973-11-28 15:00:00 TS -10.5448 117.767 main 164 164 P_____P__PP_P_ SH071974 -10.3000 117.742 -1 -10.7946 117.767 30 45 989 -10.3000 117.742 TC -10.2669 117.752 4 -10.8075 117.800 TC 47 989 2 89
1973330S10116 1974 128 SI WA BERYL 1973-11-28 16:00:00 TS -10.5452 117.810 45 989 bom main 164 156 P_____O__PP_P_ SH071974 -10.3025 117.795 -1 -10.8000 117.800 30 45 989 3.00000 -10.3025 117.795 TC -10.2559 117.806 4 -10.8079 117.833 TC 48 989 3 88
1973330S10116 1974 128 SI WA BERYL 1973-11-28 18:00:00 TS -10.5405 117.897 main 156 156 O_____P__OP_O_ jtwc_sh SH071974 -10.3000 117.900 -1 -10.8079 117.867 30 48 988 -10.3000 117.900 TC -10.2351 117.915 4 -10.8000 117.900 TC 50 989 3 83
1973330S10116 1974 128 SI WA BERYL 1973-11-28 19:00:00 TS -10.5286 117.941 50 988 bom main 156 148 P_____O__PP_P_ SH071974 -10.2864 117.955 -1 -10.8000 117.900 30 50 988 3.50000 -10.2864 117.955 TC -10.2258 117.969 4 -10.7864 117.933 TC 50 988 3 69
1973330S10116 1974 128 SI WA BERYL 1973-11-28 21:00:00 TS -10.4904 118.029 main 148 141 P_____P__PP_P_ SH071974 -10.2500 118.065 -1 -10.7309 117.967 30 50 988 -10.2500 118.065 TC -10.2107 118.071 4 -10.7500 118.000 TC 50 988 3 65
1973330S10116 1974 128 SI WA BERYL 1973-11-28 22:00:00 TS -10.4716 118.071 50 988 bom main 141 141 P_____O__PP_P_ SH071974 -10.2309 118.116 -1 -10.7000 118.000 30 50 988 3.50000 -10.2309 118.116 TC -10.2053 118.118 4 -10.7309 118.033 TC 50 988 2 70
1973330S10116 1974 128 SI WA BERYL 1973-11-29 00:00:00 TS -10.4491 118.146 main 133 125 O_____P__OO_O_ jtwc_sh SH071974 -10.2000 118.200 -1 -10.6946 118.075 30 50 988 -10.2000 118.200 TC -10.2000 118.200 4 -10.7000 118.100 TC 50 988 2 75
1973330S10116 1974 128 SI WA BERYL 1973-11-29 01:00:00 TS -10.4448 118.174 50 988 bom main 125 125 P_____O__PP_P_ SH071974 -10.1917 118.228 -1 -10.7000 118.100 30 50 988 3.50000 -10.1917 118.228 TC -10.2004 118.231 4 -10.6917 118.136 TC 50 987 1 84
1973330S10116 1974 128 SI WA BERYL 1973-11-29 03:00:00 TS -10.4418 118.210 main 125 125 P_____P__PP_P_ SH071974 -10.1850 118.265 -1 -10.6974 118.101 30 50 986 -10.1850 118.265 TC -10.2065 118.283 4 -10.6850 118.208 TC 52 987 1 90
1973330S10116 1974 128 SI WA BERYL 1973-11-29 04:00:00 TS -10.4447 118.224 50 986 bom main 125 125 P_____O__PP_P_ SH071974 -10.1867 118.278 -1 -10.7000 118.100 30 50 986 3.50000 -10.1867 118.278 TC -10.2121 118.304 4 -10.6867 118.241 TC 53 986 1 111
1973330S10116 1974 128 SI WA BERYL 1973-11-29 06:00:00 TS -10.4616 118.262 main 125 125 O_____P__OP_O_ jtwc_sh SH071974 -10.2000 118.300 -1 -10.7296 118.185 30 50 984 -10.2000 118.300 TC -10.2275 118.337 4 -10.7000 118.300 TC 55 986 1 126
1973330S10116 1974 128 SI WA BERYL 1973-11-29 09:00:00 TS -10.5069 118.316 main 125 125 P_____P__PP_P_ SH071974 -10.2500 118.350 -1 -10.7880 118.306 30 50 983 -10.2500 118.350 TC -10.2597 118.373 4 -10.7425 118.358 TC 55 984 1 134
1973330S10116 1974 128 SI WA BERYL 1973-11-29 10:00:00 TS -10.5232 118.326 50 983 bom main 125 125 P_____O__PP_P_ SH071974 -10.2691 118.367 -1 -10.8000 118.300 30 50 983 3.50000 -10.2691 118.367 TC -10.2724 118.383 4 -10.7612 118.372 TC 55 984 1 0
1973330S10116 1974 128 SI WA BERYL 1973-11-29 12:00:00 TS -10.5503 118.323 main 133 133 O_____P__OO_O_ jtwc_sh SH071974 -10.3000 118.400 -1 -10.8018 118.135 30 50 983 -10.3000 118.400 TC -10.3000 118.400 4 -10.8000 118.400 TC 55 983 1 144
1973330S10116 1974 128 SI WA BERYL 1973-11-29 13:00:00 TS -10.5554 118.335 50 983 bom main 133 126 P_____O__PP_P_ SH071974 -10.3005 118.419 -1 -10.8000 118.100 30 50 983 3.50000 -10.3005 118.419 TC -10.2998 118.423 4 -10.8167 118.417 TC 55 982 2 99
1973330S10116 1974 128 SI WA BERYL 1973-11-29 15:00:00 TS -10.5621 118.405 main 126 126 P_____P__PP_P_ SH071974 -10.2925 118.458 -1 -10.7921 118.297 30 53 982 -10.2925 118.458 TC -10.2981 118.469 4 -10.8500 118.450 TC 57 982 2 97
1973330S10116 1974 128 SI WA BERYL 1973-11-29 16:00:00 TS -10.5683 118.440 55 982 bom main 126 120 P_____O__PP_P_ SH071974 -10.2896 118.475 -1 -10.8000 118.400 30 55 982 4.00000 -10.2896 118.475 TC -10.2990 118.490 4 -10.8667 118.467 TC 58 982 1 116
1973330S10116 1974 128 SI WA BERYL 1973-11-29 18:00:00 TS -10.5965 118.472 main 120 120 O_____P__OP_O_ jtwc_sh SH071974 -10.3000 118.500 -1 -10.8691 118.408 30 55 981 -10.3000 118.500 TC -10.3099 118.525 4 -10.9000 118.500 TC 60 982 1 141
1973330S10116 1974 128 SI WA BERYL 1973-11-29 19:00:00 TS -10.6118 118.486 55 981 bom main 120 120 P_____O__PP_P_ SH071974 -10.3114 118.514 -1 -10.9000 118.400 30 55 981 4.00000 -10.3114 118.514 TC -10.3223 118.536 4 -10.9114 118.525 TC 60 981 1 144
1973330S10116 1974 128 SI WA BERYL 1973-11-29 21:00:00 TS -10.6420 118.521 main 120 120 P_____P__PP_P_ SH071974 -10.3550 118.530 -1 -10.8975 118.469 30 55 981 -10.3550 118.530 TC -10.3668 118.543 4 -10.9350 118.572 TC 60 981 1 142
1973330S10116 1974 128 SI WA BERYL 1973-11-29 22:00:00 TS -10.6654 118.530 55 981 bom main 129 129 P_____O__PP_P_ SH071974 -10.3909 118.529 -1 -10.9000 118.500 30 55 981 4.00000 -10.3909 118.529 TC -10.4012 118.537 4 -10.9509 118.590 TC 60 981 2 194
1973330S10116 1974 128 SI WA BERYL 1973-11-30 00:00:00 TS -10.7435 118.519 main 129 129 O_____P__OO_O_ jtwc_sh SH071974 -10.5000 118.500 -1 -10.9612 118.513 30 55 981 -10.5000 118.500 TC -10.5000 118.500 4 -11.0000 118.600 TC 60 981 3 198
1973330S10116 1974 128 SI WA BERYL 1973-11-30 01:00:00 TS -10.7958 118.498 55 981 bom main 139 139 P_____O__PP_P_ SH071974 -10.5745 118.472 -1 -11.0000 118.500 30 55 981 4.00000 -10.5745 118.472 TC -10.5727 118.467 4 -11.0359 118.589 TC 60 980 4 206
1973330S10116 1974 128 SI WA BERYL 1973-11-30 03:00:00 TS -10.9206 118.429 main 154 154 P_____P__PP_P_ SH071974 -10.7625 118.387 -1 -11.0588 118.447 30 58 979 -10.7625 118.387 TC -10.7500 118.377 4 -11.1275 118.537 TC 62 980 5 210
1973330S10116 1974 128 SI WA BERYL 1973-11-30 04:00:00 TS -10.9950 118.380 60 979 bom main 164 164 P_____O__PP_P_ SH071974 -10.8704 118.332 -1 -11.1000 118.400 30 60 979 4.00000 -10.8704 118.332 TC -10.8519 118.321 4 -11.1812 118.499 TC 63 979 6 213
1973330S10116 1974 128 SI WA BERYL 1973-11-30 06:00:00 TS -11.1658 118.260 main 189 189 O_____P__OP_O_ jtwc_sh SH071974 -11.1000 118.200 -1 -11.2200 118.272 30 63 976 -11.1000 118.200 TC -11.0750 118.190 4 -11.3000 118.400 TC 65 979 6 214
1973330S10116 1974 128 SI WA BERYL 1973-11-30 07:00:00 TS -11.2589 118.195 65 976 bom main 204 204 P_____O__PP_P_ SH071974 -11.2136 118.128 -1 -11.3000 118.200 40 65 976 4.50000 -11.2136 118.128 TC -11.1935 118.117 4 -11.3557 118.347 TC 65 978 7 215
1973330S10116 1974 128 SI WA BERYL 1973-11-30 09:00:00 TS -11.4633 118.050 main 234 234 P_____P__PP_P_ SH071974 -11.4500 117.965 -1 -11.4946 118.059 40 65 976 -11.4500 117.965 TC -11.4375 117.958 4 -11.4775 118.222 TC 65 977 8 215
1973330S10116 1974 128 SI WA BERYL 1973-11-30 10:00:00 TS -11.5704 117.974 65 976 bom main 244 244 P_____O__PP_P_ SH071974 -11.5691 117.878 -1 -11.6000 118.000 40 65 976 4.50000 -11.5691 117.878 TC -11.5602 117.874 4 -11.5454 118.152 TC 65 977 8 214
1973330S10116 1974 128 SI WA BERYL 1973-11-30 12:00:00 TS -11.7833 117.825 main 274 274 O_____P__OO_O_ jtwc_sh SH071974 -11.8000 117.700 -1 -11.8000 117.952 40 65 976 -11.8000 117.700 TC -11.8000 117.700 4 -11.7000 118.000 TC 65 976 8 215
1973330S10116 1974 128 SI WA BERYL 1973-11-30 13:00:00 TS -11.8831 117.750 65 976 bom main 290 290 P_____O__PP_P_ SH071974 -11.9057 117.619 -1 -11.9000 117.900 40 65 976 4.50000 -11.9057 117.619 TC -11.9021 117.622 4 -11.7859 117.925 TC 65 975 8 220
1973330S10116 1974 128 SI WA BERYL 1973-11-30 15:00:00 TS -12.0822 117.566 main 314 314 P_____P__PP_P_ SH071974 -12.1075 117.457 -1 -12.1000 117.642 40 65 975 -12.1075 117.457 TC -12.1030 117.459 4 -11.9775 117.765 TC 67 975 8 223
1973330S10116 1974 128 SI WA BERYL 1973-11-30 16:00:00 TS -12.1820 117.469 65 975 bom main 330 330 P_____O__PP_P_ SH071974 -12.2054 117.374 -1 -12.2000 117.500 40 65 975 4.50000 -12.2054 117.374 TC -12.2024 117.373 4 -12.0812 117.680 TC 68 975 8 223
1973330S10116 1974 128 SI WA BERYL 1973-11-30 18:00:00 TS -12.3833 117.282 main 360 360 O_____P__OP_O_ jtwc_sh SH071974 -12.4000 117.200 -1 -12.4000 117.295 40 68 973 -12.4000 117.200 TC -12.3999 117.195 4 -12.3000 117.500 TC 70 975 8 222
1973330S10116 1974 128 SI WA BERYL 1973-11-30 19:00:00 TS -12.4849 117.187 70 973 bom main 376 376 P_____O__PP_P_ SH071974 -12.5000 117.108 -1 -12.5000 117.200 40 70 973 4.50000 -12.5000 117.108 TC -12.4985 117.102 4 -12.4110 117.406 TC 70 974 8 223
1973330S10116 1974 128 SI WA BERYL 1973-11-30 21:00:00 TS -12.6888 116.991 main 403 403 P_____P__PP_P_ SH071974 -12.7000 116.915 -1 -12.6921 117.000 40 70 973 -12.7000 116.915 TC -12.6967 116.908 4 -12.6425 117.207 TC 70 974 9 223
1973330S10116 1974 128 SI WA BERYL 1973-11-30 22:00:00 TS -12.7936 116.890 70 973 bom main 414 414 P_____O__PP_P_ SH071974 -12.8000 116.813 -1 -12.8000 116.900 40 70 973 4.50000 -12.8000 116.813 TC -12.7968 116.808 4 -12.7612 117.105 TC 70 973 9 223
1973330S10116 1974 128 SI WA BERYL 1973-12-01 00:00:00 TS -13.0136 116.683 main 438 438 O_____P__OO_O_ jtwc_sh SH071974 -13.0000 116.600 -1 -13.0691 116.700 40 70 973 -13.0000 116.600 TC -13.0000 116.600 4 -13.0000 116.900 TC 70 973 9 223
1973330S10116 1974 128 SI WA BERYL 1973-12-01 01:00:00 TS -13.1219 116.578 70 973 bom main 450 450 P_____O__PP_P_ SH071974 -13.0974 116.489 -1 -13.2000 116.600 40 70 973 4.50000 -13.0974 116.489 TC -13.1001 116.490 4 -13.1166 116.800 TC 70 973 9 224
1973330S10116 1974 128 SI WA BERYL 1973-12-01 03:00:00 TS -13.3307 116.362 main 474 474 P_____P__PP_P_ SH071974 -13.2925 116.257 -1 -13.4054 116.400 40 70 973 -13.2925 116.257 TC -13.3017 116.259 4 -13.3500 116.600 TC 70 973 9 225
1973330S10116 1974 128 SI WA BERYL 1973-12-01 04:00:00 TS -13.4354 116.253 70 973 bom main 487 487 P_____O__PP_P_ SH071974 -13.3921 116.139 -1 -13.5000 116.300 40 70 973 4.50000 -13.3921 116.139 TC -13.4038 116.141 4 -13.4666 116.500 TC 70 973 9 225
1973330S10116 1974 128 SI WA BERYL 1973-12-01 06:00:00 TS -13.6508 116.033 main 526 526 O_____P__OP_O_ jtwc_sh SH071974 -13.6000 115.900 -1 -13.6921 116.100 40 70 973 -13.6000 115.900 TC -13.6127 115.900 4 -13.7000 116.300 TC 70 973 9 224
1973330S10116 1974 128 SI WA BERYL 1973-12-01 07:00:00 TS -13.7635 115.923 70 973 bom main 539 539 P_____O__PP_P_ SH071974 -13.7083 115.781 -1 -13.8000 116.000 40 70 973 4.50000 -13.7083 115.781 TC -13.7200 115.779 4 -13.8166 116.200 TC 70 973 10 222
1973330S10116 1974 128 SI WA BERYL 1973-12-01 09:00:00 TS -14.0027 115.704 main 565 565 P_____P__PP_P_ SH071974 -13.9350 115.542 -1 -14.0612 115.800 40 70 973 -13.9350 115.542 TC -13.9423 115.540 4 -14.0500 116.000 TC 70 973 10 221
1973330S10116 1974 128 SI WA BERYL 1973-12-01 10:00:00 TS -14.1265 115.596 70 973 bom main 577 577 P_____O__PP_P_ SH071974 -14.0533 115.425 -1 -14.2000 115.700 40 70 973 4.50000 -14.0533 115.425 TC -14.0580 115.424 4 -14.1666 115.900 TC 70 973 10 220
1973330S10116 1974 128 SI WA BERYL 1973-12-01 12:00:00 TS -14.3778 115.383 main 614 614 O_____P__OO_O_ jtwc_sh SH071974 -14.3000 115.200 -1 -14.4667 115.500 40 70 973 -14.3000 115.200 TC -14.3000 115.200 4 -14.4000 115.700 TC 70 973 10 219
1973330S10116 1974 128 SI WA BERYL 1973-12-01 13:00:00 TS -14.5047 115.279 70 973 bom main 627 627 P_____O__PP_P_ SH071974 -14.4250 115.092 -1 -14.6000 115.400 40 70 973 4.50000 -14.4250 115.092 TC -14.4307 115.089 4 -14.5140 115.603 TC 70 973 10 218
1973330S10116 1974 128 SI WA BERYL 1973-12-01 15:00:00 TS -14.7639 115.076 main 664 662 P_____P__PP_P_ SH071974 -14.6850 114.885 -1 -14.8667 115.200 40 70 973 -14.6850 114.885 TC -14.7043 114.871 4 -14.7424 115.407 TC 70 973 10 217
1973330S10116 1974 128 SI WA BERYL 1973-12-01 16:00:00 TS -14.8963 114.976 70 973 bom main 662 644 P_____O__PP_P_ SH071974 -14.8200 114.787 -1 -15.0000 115.100 40 70 973 4.50000 -14.8200 114.787 TC -14.8459 114.767 4 -14.8587 115.308 TC 70 973 10 216
1973330S10116 1974 128 SI WA BERYL 1973-12-01 18:00:00 TS -15.1669 114.778 main 636 629 O_____P__OP_O_ jtwc_sh SH071974 -15.1000 114.600 -1 -15.2667 114.900 40 70 973 -15.1000 114.600 TC -15.1350 114.568 4 -15.1000 115.100 TC 70 973 10 216
1973330S10116 1974 128 SI WA BERYL 1973-12-01 19:00:00 TS -15.3069 114.672 70 973 bom main 629 605 P_____O__PP_P_ SH071974 -15.2495 114.503 -1 -15.4000 114.800 40 70 973 4.50000 -15.2495 114.503 TC -15.2812 114.475 4 -15.2277 114.976 TC 70 973 10 215
1973330S10116 1974 128 SI WA BERYL 1973-12-01 21:00:00 TS -15.5913 114.466 main 605 599 P_____P__PP_P_ SH071974 -15.5575 114.320 -1 -15.6666 114.608 40 70 973 -15.5575 114.320 TC -15.5732 114.306 4 -15.4926 114.720 TC 70 973 10 214
1973330S10116 1974 128 SI WA BERYL 1973-12-01 22:00:00 TS -15.7333 114.367 70 973 bom main 599 578 P_____O__PP_P_ SH071974 -15.7104 114.238 -1 -15.8000 114.500 40 70 973 4.50000 -15.7104 114.238 TC -15.7176 114.230 4 -15.6280 114.599 TC 70 973 10 213
1973330S10116 1974 128 SI WA BERYL 1973-12-02 00:00:00 TS -16.0111 114.186 main 578 568 O_____P__OO_O_ jtwc_sh SH071974 -16.0000 114.100 -1 -16.0667 114.215 40 70 973 -16.0000 114.100 TC -16.0000 114.100 4 -15.9000 114.400 TC 70 973 10 210
1973330S10116 1974 128 SI WA BERYL 1973-12-02 01:00:00 TS -16.1411 114.118 70 973 bom main 573 549 P_____O__PP_P_ SH071974 -16.1254 114.047 -1 -16.2000 114.100 40 70 973 4.50000 -16.1254 114.047 TC -16.1292 114.045 4 -16.0333 114.335 TC 69 973 8 201
1973330S10116 1974 128 SI WA BERYL 1973-12-02 03:00:00 TS -16.3937 114.035 main 549 539 P_____P__PP_P_ SH071974 -16.3575 113.970 -1 -16.4666 114.009 40 70 973 -16.3575 113.970 TC -16.3810 113.959 4 -16.2999 114.255 TC 67 974 8 196
1973330S10116 1974 128 SI WA BERYL 1973-12-02 04:00:00 TS -16.5184 114.011 70 974 bom main 539 520 P_____O__PP_P_ SH071974 -16.4696 113.942 -1 -16.6000 114.000 40 70 974 4.50000 -16.4696 113.942 TC -16.5047 113.925 4 -16.4333 114.231 TC 66 974 8 188
1973330S10116 1974 128 SI WA BERYL 1973-12-02 06:00:00 TS -16.7694 113.978 main 511 502 O_____P__OP_O_ jtwc_sh SH071974 -16.7000 113.900 -1 -16.8667 113.995 40 66 974 -16.7000 113.900 TC -16.7497 113.874 4 -16.7000 114.200 TC 65 976 8 186
1973330S10116 1974 128 SI WA BERYL 1973-12-02 07:00:00 TS -16.8977 113.962 65 975 bom main 502 489 P_____O__PP_P_ SH071974 -16.8276 113.875 -1 -17.0000 114.000 40 65 975 4.50000 -16.8276 113.875 TC -16.8721 113.856 4 -16.8281 114.175 TC 64 976 8 184
1973330S10116 1974 128 SI WA BERYL 1973-12-02 09:00:00 TS -17.1580 113.936 main 479 469 P_____P__PP_P_ SH071974 -17.0925 113.835 -1 -17.2667 114.000 40 65 977 -17.0925 113.835 TC -17.1186 113.828 4 -17.0850 114.135 TC 62 978 8 187
1973330S10116 1974 128 SI WA BERYL 1973-12-02 10:00:00 TS -17.2904 113.928 65 978 bom main 469 450 P_____O__PP_P_ SH071974 -17.2279 113.820 -1 -17.4000 114.000 40 65 978 4.50000 -17.2279 113.820 TC -17.2437 113.817 4 -17.2175 114.120 TC 61 979 8 0
1973330S10116 1974 128 SI WA BERYL 1973-12-02 12:00:00 TS -17.5598 113.917 main 441 431 O_____P__OO_O_ jtwc_sh SH071974 -17.5000 113.800 -1 -17.6588 114.000 40 61 981 -17.5000 113.800 TC -17.5000 113.800 4 -17.5000 114.100 TC 60 981 8 0
1973330S10116 1974 128 SI WA BERYL 1973-12-02 13:00:00 TS -17.6981 113.912 60 983 bom main 431 404 P_____O__PP_P_ SH071974 -17.6307 113.797 -1 -17.8000 114.000 30 60 983 4.00000 -17.6307 113.797 TC -17.6300 113.785 4 -17.6552 114.094 TC 59 981 9 0
1973330S10116 1974 128 SI WA BERYL 1973-12-02 15:00:00 TS -17.9879 113.909 main 404 395 P_____P__PP_P_ SH071974 -17.8925 113.800 -1 -18.1279 114.000 30 60 985 -17.8925 113.800 TC -17.8944 113.760 4 -17.9850 114.092 TC 57 982 9 0
1973330S10116 1974 128 SI WA BERYL 1973-12-02 16:00:00 TS -18.1371 113.908 60 986 bom main 395 367 P_____O__PP_P_ SH071974 -18.0254 113.802 -1 -18.3000 114.000 30 60 986 4.00000 -18.0254 113.802 TC -18.0291 113.751 4 -18.1558 114.095 TC 56 982 9 0
1973330S10116 1974 128 SI WA BERYL 1973-12-02 18:00:00 TS -18.4397 113.906 main 367 349 O_____P__OP_O_ jtwc_sh SH071974 -18.3000 113.800 -1 -18.6333 114.000 30 56 986 -18.3000 113.800 TC -18.3050 113.735 4 -18.5000 114.100 TC 55 984 9 183
1973330S10116 1974 128 SI WA BERYL 1973-12-02 19:00:00 TS -18.5929 113.901 55 986 bom main 349 322 P_____O__PP_P_ SH071974 -18.4417 113.786 -1 -18.8000 114.000 30 55 986 4.00000 -18.4417 113.786 TC -18.4466 113.728 4 -18.6667 114.103 TC 54 984 9 183
1973330S10116 1974 128 SI WA BERYL 1973-12-02 21:00:00 TS -18.9057 113.889 main 322 314 P_____P__PP_P_ SH071974 -18.7350 113.750 -1 -19.1333 114.000 30 55 986 -18.7350 113.750 TC -18.7381 113.717 4 -19.0000 114.107 TC 52 985 10 0
1973330S10116 1974 128 SI WA BERYL 1973-12-02 22:00:00 TS -19.0650 113.881 55 987 bom main 306 277 P_____O__PP_P_ SH071974 -18.8867 113.731 -1 -19.3000 114.000 30 55 987 4.00000 -18.8867 113.731 TC -18.8886 113.711 4 -19.1667 114.108 TC 51 985 10 0
1973330S10116 1974 128 SI WA BERYL 1973-12-03 00:00:00 TS -19.3889 113.867 main 277 267 O_____P__OO_O_ jtwc_sh SH071974 -19.2000 113.700 -1 -19.6333 114.000 30 55 987 -19.2000 113.700 TC -19.2000 113.700 4 -19.5000 114.100 TC 50 987 10 0
1973330S10116 1974 128 SI WA BERYL 1973-12-03 01:00:00 TS -19.5519 113.859 55 988 bom main 256 224 P_____O__PP_P_ SH071974 -19.3583 113.697 -1 -19.8000 114.000 30 55 988 4.00000 -19.3583 113.697 TC -19.3640 113.683 4 -19.6667 114.089 TC 49 987 10 0
1973330S10116 1974 128 SI WA BERYL 1973-12-03 03:00:00 TS -19.8834 113.845 main 224 213 P_____P__PP_P_ SH071974 -19.6850 113.700 -1 -20.1333 114.008 30 55 988 -19.6850 113.700 TC -19.7043 113.647 4 -20.0000 114.058 TC 47 989 10 182
1973330S10116 1974 128 SI WA BERYL 1973-12-03 04:00:00 TS -20.0519 113.835 55 989 bom main 202 169 P_____O__PP_P_ SH071974 -19.8533 113.702 -1 -20.3000 114.000 30 55 989 4.00000 -19.8533 113.702 TC -19.8792 113.629 4 -20.1667 114.039 TC 46 989 10 184
1973330S10116 1974 128 SI WA BERYL 1973-12-03 06:00:00 TS -20.3934 113.805 main 169 157 O_____P__OP_O_ jtwc_sh SH071974 -20.2000 113.700 -1 -20.6254 113.931 30 51 989 -20.2000 113.700 TC -20.2350 113.599 4 -20.5000 114.000 TC 45 991 10 183
1973330S10116 1974 128 SI WA BERYL 1973-12-03 07:00:00 TS -20.5699 113.786 50 990 bom main 146 113 P_____O__PP_P_ SH071974 -20.3802 113.681 -1 -20.8000 113.900 30 50 990 3.50000 -20.3802 113.681 TC -20.4144 113.587 4 -20.6640 113.983 TC 43 991 11 183
1973330S10116 1974 128 SI WA BERYL 1973-12-03 09:00:00 TS -20.9363 113.759 main 113 91 P_____P__PP_P_ SH071974 -20.7500 113.635 -1 -21.2025 113.902 30 50 992 -20.7500 113.635 TC -20.7731 113.576 4 -20.9925 113.950 TC 40 993 11 184
1973330S10116 1974 128 SI WA BERYL 1973-12-03 10:00:00 TS -21.1195 113.747 50 994 bom main 94 63 P_____O__PP_P_ SH071974 -20.9358 113.615 -1 -21.4000 113.900 30 50 994 3.50000 -20.9358 113.615 TC -20.9509 113.577 4 -21.1588 113.933 TC 38 994 11 185
1973330S10116 1974 128 SI WA BERYL 1973-12-03 12:00:00 TS -21.4739 113.724 main 54 45 O_____P__OO_O_ jtwc_sh SH071974 -21.3000 113.600 -1 -21.7431 113.843 30 46 996 -21.3000 113.600 TC -21.3000 113.600 4 -21.5000 113.900 TC 35 996 11 183
1973330S10116 1974 128 SI WA BERYL 1973-12-03 13:00:00 TS -21.6481 113.712 45 998 bom main 45 23 P_____O__PP_P_ SH071974 -21.4750 113.611 -1 -21.9000 113.800 30 45 998 3.00000 -21.4750 113.611 TC -21.4701 113.622 4 -21.6881 113.873 TC 35 996 10 183
1973330S10116 1974 128 SI WA BERYL 1973-12-03 15:00:00 TS -21.9890 113.699 45 1001 bom main 23 20 P_____O__PP_P_ SH071974 -21.8150 113.662 -1 -22.2000 113.700 30 45 1001 3.00000 -21.8150 113.662 TC -21.8014 113.688 4 -22.0725 113.820 TC 35 999 10 0
1973330S10116 1974 128 SI WA BERYL 1973-12-03 16:00:00 TS -22.1631 113.710 40 1002 bom main 15 0 P_____O__PP_P_ SH071974 -21.9800 113.701 -1 -22.4000 113.700 30 40 1002 3.00000 -21.9800 113.701 TC -21.9631 113.729 4 -22.2595 113.802 TC 35 999 10 174
1973330S10116 1974 128 SI WA BERYL 1973-12-03 18:00:00 TS -22.4882 113.752 main 0 0 O_____P__OP_O_ jtwc_sh SH071974 -22.3000 113.800 -1 -22.7489 113.686 30 33 1002 -22.3000 113.800 TC -22.2802 113.828 4 -22.6000 113.800 TC 35 1002 10 171
1973330S10116 1974 128 SI WA BERYL 1973-12-03 19:00:00 TS -22.6379 113.791 30 1002 bom main 0 0 P_____O__PP_P_ SH071974 -22.4551 113.858 -1 -22.9000 113.700 20 30 1002 2.50000 -22.4551 113.858 TC -22.4361 113.884 4 -22.7455 113.823 TC 34 1002 9 163
1973330S10116 1974 128 SI WA BERYL 1973-12-03 21:00:00 TS -22.9337 113.904 main 0 0 P_____P__PP_P_ SH071974 -22.7576 113.987 -1 -23.1879 113.822 20 30 1003 -22.7576 113.987 TC -22.7440 114.005 4 -22.9926 113.910 TC 32 1003 9 159
1973330S10116 1974 128 SI WA BERYL 1973-12-03 22:00:00 TS -23.0688 113.972 30 1004 bom main 0 0 P_____O__PP_P_ SH071974 -22.9060 114.057 -1 -23.3000 113.900 20 30 1004 2.50000 -22.9060 114.057 TC -22.8965 114.069 4 -23.1003 113.968 TC 31 1003 9 154
1973330S10116 1974 128 SI WA BERYL 1973-12-04 00:00:00 TS -23.3135 114.111 main 0 0 O_____P__OO_O_ jtwc_sh SH071974 -23.2000 114.200 -1 -23.4472 114.037 20 26 1004 -23.2000 114.200 TC -23.2000 114.200 4 -23.3000 114.100 TC 30 1004 9 164
1973330S10116 1974 128 SI WA BERYL 1973-12-04 01:00:00 NR -23.5000 114.100 25 1005 bom main 0 ______O_______ SH071974 -1 -23.5000 114.100 20 25 1005 2.00000 TC 4 TC 11 0

IBTrACS Databaseについて

本データベースは、米国NOAAが公開する1842年以降の世界の熱帯低気圧のベストトラックデータアーカイブInternational Best Track Archive for Climate Stewardship (IBTrACS)を、ウェブで閲覧しやすい形式に変換したものです。

最終更新日:2021-11-26